Airport Name : Halmstad

Other Name : Halmstad

ICAO : ESMT

IATA : HAD

FAA :

Latitude : 56.691128

Longitude : 12.820211

Country : Sweden

Local Date and Time : 17 May 2021 14:39

 

TAF (Terminal Aerodrome Forecast)

TAF ESMT 171103Z 1712/1719 20007KT 9999 BKN020 TEMPO 1712/1716 SHRA BKN012 SCT020CB PROB40 1712/1714 TSRA

 

METAR (METeorological Aerodrome Report)

ESMT 171220Z 23009KT 9999 FEW033 14/09 Q1002

ESMT 171150Z 24007KT 210V270 9999 FEW046 13/08 Q1001

ESMT 171120Z 23010KT 9999 FEW016 14/09 Q1001

ESMT 171050Z 22009KT 190V250 9999 FEW016 14/09 Q1001

ESMT 171020Z 19009KT 9999 FEW012 SCT044 13/09 Q1001

ESMT 170950Z 21008KT 170V230 9999 FEW010 SCT013 12/10 Q1001

ESMT 170920Z 21010KT 180V240 9999 BKN010 12/09 Q1001

ESMT 170850Z 21006KT 170V250 9999 SCT009 BKN013 12/09 Q1001

To Charter a Jet Click here.